Time;durP1;ratioP1;P1;durP2;ratioP2;P2;SDS_P1;SDS_P2;PMS_P1;PMS_P2;Temp;Humidity;BMP_temperature;BMP_pressure;BME280_temperature;BME280_humidity;BME280_pressure;Samples;Min_cycle;Max_cycle;Signal;HPM_P1;HPM_P2
2023/11/07 00:01:30;;;;;;;20.00;9.43;;;8.80;99.90;;;;;;4972214;28;20513;-65
2023/11/07 00:03:56;;;;;;;19.40;8.55;;;8.90;99.90;;;;;;4973047;28;20059;-65
2023/11/07 00:06:22;;;;;;;17.20;8.75;;;8.90;99.90;;;;;;4989297;28;20035;-65
2023/11/07 00:08:48;;;;;;;18.35;8.55;;;9.00;99.90;;;;;;4990448;28;20489;-64
2023/11/07 00:11:14;;;;;;;19.35;9.05;;;9.00;99.90;;;;;;4972632;28;20038;-67
2023/11/07 00:13:40;;;;;;;21.48;9.18;;;9.10;99.90;;;;;;4972320;28;20080;-64
2023/11/07 00:16:07;;;;;;;20.23;8.80;;;9.10;99.90;;;;;;4989814;28;20066;-67
2023/11/07 00:18:34;;;;;;;17.13;8.88;;;9.10;99.90;;;;;;4972504;28;20096;-64
2023/11/07 00:20:59;;;;;;;20.77;9.55;;;9.20;99.90;;;;;;4992725;28;20066;-66
2023/11/07 00:23:25;;;;;;;17.90;9.15;;;9.20;99.90;;;;;;4997991;28;20038;-66
2023/11/07 00:25:54;;;;;;;20.50;9.85;;;9.20;99.90;;;;;;4991244;28;20031;-65
2023/11/07 00:28:20;;;;;;;17.60;9.23;;;9.30;99.90;;;;;;4991846;28;20081;-66
2023/11/07 00:30:47;;;;;;;15.77;8.48;;;9.30;99.90;;;;;;4971735;28;20038;-66
2023/11/07 00:33:13;;;;;;;21.13;8.48;;;9.30;99.90;;;;;;4993924;28;20093;-66
2023/11/07 00:35:41;;;;;;;17.92;8.23;;;9.30;99.90;;;;;;4985791;28;20031;-66
2023/11/07 00:38:06;;;;;;;17.63;8.63;;;9.30;99.90;;;;;;4989234;28;20038;-65
2023/11/07 00:40:32;;;;;;;16.98;8.00;;;9.30;99.90;;;;;;4994234;28;20042;-66
2023/11/07 00:42:58;;;;;;;17.65;8.15;;;9.20;99.90;;;;;;4995112;28;20050;-66
2023/11/07 00:45:23;;;;;;;14.82;7.55;;;9.30;99.90;;;;;;4996920;28;20049;-66
2023/11/07 00:47:50;;;;;;;17.52;8.25;;;9.20;99.90;;;;;;4994956;28;20555;-66
2023/11/07 00:50:16;;;;;;;20.67;7.90;;;9.20;99.90;;;;;;4992190;28;20065;-66
2023/11/07 00:52:42;;;;;;;19.77;8.32;;;9.20;99.90;;;;;;4973476;28;20043;-66
2023/11/07 00:55:08;;;;;;;16.60;8.52;;;9.20;99.90;;;;;;4989686;28;20563;-66
2023/11/07 00:57:34;;;;;;;18.30;7.75;;;9.10;99.90;;;;;;4994455;28;20035;-67
2023/11/07 00:59:59;;;;;;;19.52;7.30;;;9.00;99.90;;;;;;4994614;28;20030;-66
2023/11/07 01:02:25;;;;;;;17.50;7.80;;;9.00;99.90;;;;;;4998421;28;20105;-66
2023/11/07 01:04:51;;;;;;;21.55;7.10;;;9.00;99.90;;;;;;4993033;28;20065;-66
2023/11/07 01:07:16;;;;;;;14.77;7.40;;;9.00;99.90;;;;;;4997509;28;20039;-66
2023/11/07 01:09:42;;;;;;;15.88;7.57;;;9.00;99.90;;;;;;4995832;28;20027;-66
2023/11/07 01:12:08;;;;;;;11.10;6.22;;;8.90;99.90;;;;;;5000143;28;20129;-65
2023/11/07 01:14:34;;;;;;;12.02;6.47;;;8.90;99.90;;;;;;4993713;28;20050;-67
2023/11/07 01:17:00;;;;;;;15.05;6.45;;;8.90;99.90;;;;;;4992460;28;20512;-65
2023/11/07 01:19:26;;;;;;;16.75;6.50;;;8.90;99.90;;;;;;4993999;28;20042;-66
2023/11/07 01:21:52;;;;;;;15.55;6.80;;;8.90;99.90;;;;;;4975965;28;20386;-66
2023/11/07 01:24:18;;;;;;;13.50;6.47;;;8.80;99.90;;;;;;4990644;28;20517;-63
2023/11/07 01:26:44;;;;;;;14.82;6.85;;;8.90;99.90;;;;;;4995592;28;20039;-65
2023/11/07 01:29:09;;;;;;;15.93;6.45;;;8.80;99.90;;;;;;4995777;28;20069;-67
2023/11/07 01:31:35;;;;;;;12.57;6.00;;;8.80;99.90;;;;;;4969735;28;20123;-66
2023/11/07 01:34:01;;;;;;;14.43;5.80;;;8.80;99.90;;;;;;4995256;28;20099;-66
2023/11/07 01:36:26;;;;;;;13.77;5.97;;;8.80;99.90;;;;;;4986947;28;20051;-64
2023/11/07 01:38:52;;;;;;;17.77;7.00;;;8.80;99.90;;;;;;4992088;28;20446;-66
2023/11/07 01:41:18;;;;;;;14.43;6.45;;;8.80;99.90;;;;;;4992516;28;20142;-66
2023/11/07 01:43:45;;;;;;;20.25;5.68;;;8.80;99.90;;;;;;4992610;28;20046;-66
2023/11/07 01:46:12;;;;;;;12.63;5.50;;;8.80;99.90;;;;;;4990518;28;20038;-66
2023/11/07 01:48:37;;;;;;;15.57;6.75;;;8.80;99.90;;;;;;4992433;28;20038;-66
2023/11/07 01:51:04;;;;;;;14.55;5.28;;;8.80;99.90;;;;;;4993328;28;20092;-66
2023/11/07 01:53:30;;;;;;;16.20;5.35;;;8.80;99.90;;;;;;4992950;28;20532;-67
2023/11/07 01:55:57;;;;;;;16.48;5.63;;;8.80;99.90;;;;;;4999220;28;20071;-66
2023/11/07 01:58:24;;;;;;;17.88;5.82;;;8.80;99.90;;;;;;4993048;28;20044;-66
2023/11/07 02:00:49;;;;;;;14.35;5.53;;;8.80;99.90;;;;;;4976144;28;20057;-67
2023/11/07 02:03:15;;;;;;;15.73;5.45;;;8.80;99.90;;;;;;4994182;28;20030;-66
2023/11/07 02:05:42;;;;;;;9.35;4.72;;;8.80;99.90;;;;;;4974545;28;20084;-63
2023/11/07 02:08:09;;;;;;;16.13;5.35;;;8.90;99.90;;;;;;4991918;28;20110;-66
2023/11/07 02:10:37;;;;;;;11.98;4.88;;;8.80;99.90;;;;;;4993332;28;20453;-66
2023/11/07 02:13:02;;;;;;;15.27;4.75;;;8.80;99.90;;;;;;4993108;28;20436;-66
2023/11/07 02:15:32;;;;;;;15.15;4.75;;;8.80;99.90;;;;;;4991967;28;20031;-66
2023/11/07 02:17:59;;;;;;;15.07;4.97;;;8.80;99.90;;;;;;4993640;28;20034;-66
2023/11/07 02:20:25;;;;;;;14.70;4.93;;;8.80;99.90;;;;;;4974810;28;20500;-67
2023/11/07 02:23:01;;;;;;;15.35;4.90;;;8.70;99.90;;;;;;4992628;28;20046;-67
2023/11/07 02:25:27;;;;;;;12.38;4.68;;;8.70;99.90;;;;;;4992386;28;20042;-66
2023/11/07 02:27:52;;;;;;;13.32;5.20;;;8.70;99.90;;;;;;4991576;28;20092;-66
2023/11/07 02:30:18;;;;;;;11.50;4.97;;;8.60;99.90;;;;;;4975570;28;20474;-66
2023/11/07 02:32:44;;;;;;;12.32;4.95;;;8.60;99.90;;;;;;4994252;28;20042;-64
2023/11/07 02:35:14;;;;;;;14.38;4.85;;;8.60;99.90;;;;;;4987778;28;20046;-66
2023/11/07 02:37:40;;;;;;;14.40;4.95;;;8.60;99.90;;;;;;4973842;28;20074;-66
2023/11/07 02:40:09;;;;;;;10.93;4.88;;;8.50;99.90;;;;;;4996412;28;20490;-66
2023/11/07 02:42:35;;;;;;;10.48;4.70;;;8.50;99.90;;;;;;4991453;28;20410;-66
2023/11/07 02:45:02;;;;;;;11.50;4.30;;;8.50;99.90;;;;;;4989961;28;20062;-66
2023/11/07 02:47:28;;;;;;;15.50;5.18;;;8.50;99.90;;;;;;4975457;28;20069;-65
2023/11/07 02:49:55;;;;;;;11.77;5.28;;;8.40;99.90;;;;;;4991846;28;20085;-67
2023/11/07 02:52:21;;;;;;;14.48;4.95;;;8.40;99.90;;;;;;4992537;28;20042;-65
2023/11/07 02:54:47;;;;;;;11.93;4.53;;;8.40;99.90;;;;;;4974075;28;20409;-64
2023/11/07 02:57:12;;;;;;;13.57;4.43;;;8.40;99.90;;;;;;4992647;28;20045;-65
2023/11/07 02:59:39;;;;;;;12.82;4.85;;;8.40;99.90;;;;;;4989243;28;20409;-66
2023/11/07 03:02:04;;;;;;;15.48;4.10;;;8.40;99.90;;;;;;4992094;28;20043;-65
2023/11/07 03:04:30;;;;;;;13.93;4.70;;;8.40;99.90;;;;;;4990997;28;20429;-66
2023/11/07 03:06:55;;;;;;;11.85;4.80;;;8.30;99.90;;;;;;4974166;28;20102;-67
2023/11/07 03:09:21;;;;;;;15.05;4.22;;;8.30;99.90;;;;;;4974671;28;20046;-66
2023/11/07 03:11:47;;;;;;;11.07;4.20;;;8.30;99.90;;;;;;4995204;28;20034;-64
2023/11/07 03:14:12;;;;;;;13.77;4.38;;;8.30;99.90;;;;;;4992329;28;20540;-67
2023/11/07 03:16:39;;;;;;;11.10;4.30;;;8.30;99.90;;;;;;4990489;28;20048;-66
2023/11/07 03:19:07;;;;;;;10.85;4.18;;;8.30;99.90;;;;;;4991531;28;20117;-66
2023/11/07 03:21:34;;;;;;;9.85;4.78;;;8.30;99.90;;;;;;4990826;28;20062;-65
2023/11/07 03:24:00;;;;;;;9.38;4.47;;;8.30;99.90;;;;;;4988479;28;20030;-66
2023/11/07 03:26:25;;;;;;;11.93;4.35;;;8.30;99.90;;;;;;4985761;28;20456;-65
2023/11/07 03:28:52;;;;;;;14.85;4.95;;;8.30;99.90;;;;;;4989511;28;20065;-66
2023/11/07 03:31:18;;;;;;;11.73;4.15;;;8.40;99.90;;;;;;4968416;28;20054;-65
2023/11/07 03:33:44;;;;;;;14.30;4.90;;;8.30;99.90;;;;;;4985233;28;20405;-65
2023/11/07 03:36:09;;;;;;;12.13;4.40;;;8.40;99.90;;;;;;4968738;28;20038;-65
2023/11/07 03:38:35;;;;;;;12.98;4.80;;;8.40;99.90;;;;;;4986881;28;20026;-65
2023/11/07 03:41:04;;;;;;;14.30;5.07;;;8.40;99.90;;;;;;4975166;28;20470;-65
2023/11/07 03:43:30;;;;;;;9.48;4.22;;;8.40;99.90;;;;;;4985970;28;20037;-67
2023/11/07 03:45:56;;;;;;;13.95;5.30;;;8.40;99.90;;;;;;4986882;28;20061;-65
2023/11/07 03:48:22;;;;;;;13.20;4.63;;;8.50;99.90;;;;;;4990183;28;20042;-64
2023/11/07 03:50:47;;;;;;;14.68;5.55;;;8.50;99.90;;;;;;4989165;28;20250;-64
2023/11/07 03:53:13;;;;;;;14.05;4.82;;;8.40;99.90;;;;;;4972916;28;20045;-65
2023/11/07 03:55:39;;;;;;;15.13;4.93;;;8.50;99.90;;;;;;4972230;28;20047;-64
2023/11/07 03:58:04;;;;;;;13.00;4.40;;;8.50;99.90;;;;;;4987061;28;20041;-64
2023/11/07 04:00:30;;;;;;;14.48;4.75;;;8.50;99.90;;;;;;4972624;28;20047;-65
2023/11/07 04:02:56;;;;;;;16.35;4.63;;;8.50;99.90;;;;;;4997256;28;20081;-64
2023/11/07 04:05:22;;;;;;;16.95;4.95;;;8.50;99.90;;;;;;5003443;28;20429;-64
2023/11/07 04:07:49;;;;;;;13.80;4.72;;;8.50;99.90;;;;;;4994075;28;20038;-64
2023/11/07 04:10:15;;;;;;;12.90;5.07;;;8.50;99.90;;;;;;4993970;28;20154;-65
2023/11/07 04:12:40;;;;;;;13.63;4.90;;;8.50;99.90;;;;;;4994272;28;20489;-67
2023/11/07 04:15:09;;;;;;;15.88;5.43;;;8.60;99.90;;;;;;4993136;28;20130;-65
2023/11/07 04:17:35;;;;;;;11.75;4.90;;;8.60;99.90;;;;;;4994410;28;20052;-65
2023/11/07 04:20:02;;;;;;;15.05;5.22;;;8.60;99.90;;;;;;4993679;28;20088;-66
2023/11/07 04:22:28;;;;;;;12.55;5.18;;;8.60;99.90;;;;;;4993988;28;20441;-65
2023/11/07 04:24:53;;;;;;;12.95;5.25;;;8.60;99.90;;;;;;4993548;28;20034;-64
2023/11/07 04:27:19;;;;;;;16.33;4.65;;;8.60;99.90;;;;;;4991871;28;20117;-65
2023/11/07 04:29:44;;;;;;;18.48;4.70;;;8.60;99.90;;;;;;4992457;28;20080;-65
2023/11/07 04:32:11;;;;;;;16.13;5.35;;;8.60;99.90;;;;;;4993668;28;20053;-65
2023/11/07 04:34:37;;;;;;;14.75;4.63;;;8.60;99.90;;;;;;4993142;28;20038;-65
2023/11/07 04:37:03;;;;;;;14.65;5.65;;;8.60;99.90;;;;;;4983353;28;20142;-64
2023/11/07 04:39:29;;;;;;;9.15;4.60;;;8.60;99.90;;;;;;4988158;28;20064;-64
2023/11/07 04:41:55;;;;;;;15.07;5.15;;;8.50;99.90;;;;;;4990837;28;20046;-64
2023/11/07 04:44:20;;;;;;;10.93;4.38;;;8.50;99.90;;;;;;4985815;28;20035;-65
2023/11/07 04:46:47;;;;;;;14.75;4.63;;;8.50;99.90;;;;;;4990747;28;20030;-65
2023/11/07 04:49:13;;;;;;;14.00;4.30;;;8.50;99.90;;;;;;4976117;28;20042;-66
2023/11/07 04:51:43;;;;;;;13.23;4.85;;;8.50;99.90;;;;;;4992500;28;20152;-65
2023/11/07 04:54:08;;;;;;;15.15;4.82;;;8.50;99.90;;;;;;4992738;28;20117;-64
2023/11/07 04:56:34;;;;;;;15.13;5.32;;;8.50;99.90;;;;;;4986843;28;20521;-66
2023/11/07 04:59:00;;;;;;;13.40;5.00;;;8.50;99.90;;;;;;4993641;28;20038;-65
2023/11/07 05:01:25;;;;;;;12.43;4.80;;;8.50;99.90;;;;;;4992484;28;20116;-65
2023/11/07 05:03:52;;;;;;;17.75;5.88;;;8.50;99.90;;;;;;4976456;28;20121;-64
2023/11/07 05:06:19;;;;;;;17.52;5.47;;;8.40;99.90;;;;;;4988489;28;20101;-68
2023/11/07 05:08:45;;;;;;;14.48;5.88;;;8.50;99.90;;;;;;4984623;28;20080;-65
2023/11/07 05:11:12;;;;;;;14.10;5.22;;;8.40;99.90;;;;;;4989157;28;20124;-66
2023/11/07 05:13:38;;;;;;;15.95;5.75;;;8.40;99.90;;;;;;4990691;28;20133;-64
2023/11/07 05:16:04;;;;;;;20.40;5.53;;;8.50;99.90;;;;;;4992612;28;20129;-65
2023/11/07 05:18:30;;;;;;;11.05;5.03;;;8.40;99.90;;;;;;4975068;28;20100;-65
2023/11/07 05:20:56;;;;;;;12.30;5.65;;;8.40;99.90;;;;;;4991363;28;20458;-65
2023/11/07 05:23:22;;;;;;;12.15;5.38;;;8.40;99.90;;;;;;4990777;28;20440;-67
2023/11/07 05:25:48;;;;;;;13.48;5.97;;;8.40;99.90;;;;;;4956941;28;20106;-64
2023/11/07 05:28:14;;;;;;;14.57;5.43;;;8.40;99.90;;;;;;4989329;28;20059;-64
2023/11/07 05:30:39;;;;;;;15.82;5.38;;;8.40;99.90;;;;;;4998583;28;20122;-64
2023/11/07 05:33:05;;;;;;;13.55;5.80;;;8.40;99.90;;;;;;4992772;28;20053;-66
2023/11/07 05:35:31;;;;;;;19.05;6.72;;;8.40;99.90;;;;;;4991323;28;20051;-67
2023/11/07 05:37:57;;;;;;;15.10;6.90;;;8.30;99.90;;;;;;4992669;28;20063;-64
2023/11/07 05:40:23;;;;;;;16.10;6.20;;;8.30;99.90;;;;;;4991813;28;20120;-65
2023/11/07 05:42:50;;;;;;;13.30;5.80;;;8.30;99.90;;;;;;4992438;28;20049;-66
2023/11/07 05:45:17;;;;;;;12.25;5.55;;;8.30;99.90;;;;;;4991046;28;20383;-64
2023/11/07 05:47:42;;;;;;;13.35;5.68;;;8.40;99.90;;;;;;4975304;28;20042;-63
2023/11/07 05:50:10;;;;;;;11.45;5.55;;;8.40;99.90;;;;;;4974408;28;20045;-64
2023/11/07 05:52:36;;;;;;;16.60;6.25;;;8.40;99.90;;;;;;4973781;28;20104;-64
2023/11/07 05:55:06;;;;;;;11.30;5.78;;;8.40;99.90;;;;;;4991645;28;20557;-65
2023/11/07 05:57:33;;;;;;;13.93;5.97;;;8.40;99.90;;;;;;4987926;28;20046;-65
2023/11/07 05:59:59;;;;;;;14.68;5.80;;;8.40;99.90;;;;;;4992139;28;20034;-64
2023/11/07 06:02:25;;;;;;;14.90;6.18;;;8.40;99.90;;;;;;4990719;28;20505;-65
2023/11/07 06:04:53;;;;;;;14.30;5.78;;;8.40;99.90;;;;;;4973306;28;20044;-64
2023/11/07 06:07:18;;;;;;;14.18;5.85;;;8.50;99.90;;;;;;4990915;28;20482;-64
2023/11/07 06:09:44;;;;;;;15.75;5.93;;;8.50;99.90;;;;;;4988783;28;20129;-67
2023/11/07 06:12:10;;;;;;;16.20;6.35;;;8.50;99.90;;;;;;4974576;28;20096;-64
2023/11/07 06:14:36;;;;;;;18.88;6.32;;;8.50;99.90;;;;;;4974889;28;20174;-64
2023/11/07 06:17:03;;;;;;;13.68;5.78;;;8.50;99.90;;;;;;4989840;28;20103;-67
2023/11/07 06:19:29;;;;;;;12.73;5.95;;;8.50;99.90;;;;;;4971335;28;20132;-64
2023/11/07 06:21:55;;;;;;;13.82;6.10;;;8.50;99.90;;;;;;4989015;28;20070;-65
2023/11/07 06:24:21;;;;;;;16.90;5.57;;;8.50;99.90;;;;;;4990385;28;20034;-65
2023/11/07 06:26:46;;;;;;;12.85;5.25;;;8.50;99.90;;;;;;4990894;28;20057;-67
2023/11/07 06:29:12;;;;;;;16.27;5.55;;;8.50;99.90;;;;;;4991143;28;20763;-65
2023/11/07 06:31:38;;;;;;;15.98;5.50;;;8.50;99.90;;;;;;4970028;28;20042;-66
2023/11/07 06:34:04;;;;;;;12.18;5.57;;;8.40;99.90;;;;;;4974471;28;20089;-67
2023/11/07 06:36:30;;;;;;;14.40;5.18;;;8.40;99.90;;;;;;4990916;28;20053;-66
2023/11/07 06:38:56;;;;;;;14.10;5.35;;;8.40;99.90;;;;;;4990931;28;20121;-67
2023/11/07 06:41:22;;;;;;;13.10;5.25;;;8.30;99.90;;;;;;4991154;28;20142;-67
2023/11/07 06:43:48;;;;;;;15.45;5.30;;;8.40;99.90;;;;;;4973813;28;20110;-67
2023/11/07 06:46:15;;;;;;;11.23;5.15;;;8.30;99.90;;;;;;4987677;28;20117;-64
2023/11/07 06:48:48;;;;;;;15.40;5.30;;;8.30;99.90;;;;;;4974495;28;20088;-67
2023/11/07 06:51:14;;;;;;;12.68;4.78;;;8.30;99.90;;;;;;4973231;28;20056;-67
2023/11/07 06:53:40;;;;;;;15.45;5.72;;;8.30;99.90;;;;;;4983213;28;20074;-67
2023/11/07 06:56:06;;;;;;;11.32;5.30;;;8.20;99.90;;;;;;4973224;28;20117;-67
2023/11/07 06:58:32;;;;;;;12.77;5.35;;;8.20;99.90;;;;;;4991416;28;20042;-67
2023/11/07 07:00:57;;;;;;;14.43;5.85;;;8.20;99.90;;;;;;4973342;28;20050;-65
2023/11/07 07:03:25;;;;;;;12.70;5.80;;;8.20;99.90;;;;;;4991165;28;20065;-67
2023/11/07 07:05:54;;;;;;;13.55;5.55;;;8.20;99.90;;;;;;4984211;28;20038;-66
2023/11/07 07:08:23;;;;;;;12.88;5.10;;;8.20;99.90;;;;;;4973340;28;20081;-66
2023/11/07 07:10:49;;;;;;;13.13;5.78;;;8.20;99.90;;;;;;4991273;28;20041;-67
2023/11/07 07:13:15;;;;;;;12.98;5.40;;;8.20;99.90;;;;;;4990311;28;20536;-67
2023/11/07 07:15:41;;;;;;;14.00;5.57;;;8.20;99.90;;;;;;4990188;28;20569;-66
2023/11/07 07:18:08;;;;;;;14.73;5.50;;;8.10;99.90;;;;;;4990212;28;20049;-67
2023/11/07 07:20:40;;;;;;;12.25;5.30;;;7.80;99.90;;;;;;4973188;28;20046;-67
2023/11/07 07:23:07;;;;;;;11.75;5.72;;;8.10;99.90;;;;;;4989382;28;20046;-65
2023/11/07 07:25:35;;;;;;;16.85;5.57;;;8.10;99.90;;;;;;4989308;28;20408;-67
2023/11/07 07:28:02;;;;;;;12.95;5.88;;;8.10;99.90;;;;;;4990513;28;20047;-66
2023/11/07 07:30:28;;;;;;;12.00;5.57;;;8.10;99.90;;;;;;4990562;28;20124;-67
2023/11/07 07:32:54;;;;;;;10.00;5.10;;;8.10;99.90;;;;;;4973176;28;20046;-66
2023/11/07 07:35:20;;;;;;;16.80;5.97;;;8.10;99.90;;;;;;4989262;28;20046;-67
2023/11/07 07:37:53;;;;;;;13.20;5.60;;;8.10;99.90;;;;;;4990680;28;20045;-64
2023/11/07 07:40:29;;;;;;;16.27;6.03;;;8.10;99.90;;;;;;4977485;28;20054;-67
2023/11/07 07:43:10;;;;;;;15.43;6.13;;;8.10;99.90;;;;;;4973674;28;20089;-66
2023/11/07 07:45:38;;;;;;;12.97;6.10;;;8.10;99.90;;;;;;4987663;28;20511;-65
2023/11/07 07:48:06;;;;;;;15.07;6.60;;;8.10;99.90;;;;;;4981617;28;20310;-64
2023/11/07 07:50:32;;;;;;;15.55;6.13;;;8.10;99.90;;;;;;4996235;28;20034;-64
2023/11/07 07:53:02;;;;;;;14.70;6.22;;;8.10;99.90;;;;;;4985419;28;20038;-64
2023/11/07 07:55:28;;;;;;;14.48;6.57;;;8.10;99.90;;;;;;4985640;28;20117;-67
2023/11/07 07:57:54;;;;;;;13.45;6.47;;;8.10;99.90;;;;;;4985627;28;20424;-64
2023/11/07 08:00:24;;;;;;;12.85;6.80;;;8.00;99.90;;;;;;4968156;28;20125;-64
2023/11/07 08:02:51;;;;;;;12.80;6.47;;;8.10;99.90;;;;;;4988536;28;20401;-64
2023/11/07 08:05:18;;;;;;;14.55;6.80;;;8.10;99.90;;;;;;4968931;28;20114;-67
2023/11/07 08:07:48;;;;;;;14.27;7.20;;;8.10;99.90;;;;;;4989199;28;20489;-65
2023/11/07 08:10:17;;;;;;;17.05;7.15;;;8.10;99.90;;;;;;4987689;28;20073;-66
2023/11/07 08:12:44;;;;;;;14.43;7.45;;;8.10;99.90;;;;;;4989566;28;20283;-67
2023/11/07 08:15:13;;;;;;;13.85;7.40;;;8.20;99.90;;;;;;4989207;28;20129;-65
2023/11/07 08:17:39;;;;;;;13.18;7.65;;;8.30;99.90;;;;;;4988416;28;20038;-64
2023/11/07 08:20:14;;;;;;;14.73;7.70;;;8.30;99.90;;;;;;4972647;28;20077;-64
2023/11/07 08:22:44;;;;;;;16.88;8.15;;;8.30;99.90;;;;;;4989424;28;20050;-66
2023/11/07 08:25:10;;;;;;;16.23;8.07;;;8.30;99.90;;;;;;4988345;28;20030;-64
2023/11/07 08:27:41;;;;;;;18.75;8.75;;;8.30;99.90;;;;;;4968271;28;20085;-68
2023/11/07 08:30:14;;;;;;;17.33;8.50;;;9.00;99.90;;;;;;4983562;28;20077;-64
2023/11/07 08:32:43;;;;;;;18.30;8.48;;;8.30;99.90;;;;;;4988706;28;20120;-66
2023/11/07 08:35:15;;;;;;;18.00;8.98;;;8.30;99.90;;;;;;4997655;28;20045;-65
2023/11/07 08:37:49;;;;;;;18.80;9.23;;;8.40;99.90;;;;;;4986525;28;20030;-64
2023/11/07 08:40:21;;;;;;;17.77;8.75;;;8.40;99.90;;;;;;4976249;28;20544;-65
2023/11/07 08:42:48;;;;;;;14.85;9.07;;;8.50;99.90;;;;;;4991966;28;20069;-65
2023/11/07 08:45:21;;;;;;;16.02;9.05;;;8.60;99.90;;;;;;4987994;28;20031;-65
2023/11/07 08:47:51;;;;;;;19.10;9.55;;;8.60;99.90;;;;;;4971320;28;20121;-68
2023/11/07 08:50:20;;;;;;;17.00;9.60;;;8.70;99.90;;;;;;4977564;28;20092;-65
2023/11/07 08:52:52;;;;;;;17.17;9.30;;;8.70;99.90;;;;;;4990254;28;20685;-65
2023/11/07 08:55:19;;;;;;;13.90;8.70;;;8.70;99.90;;;;;;4974834;28;20125;-64
2023/11/07 08:57:45;;;;;;;15.00;9.18;;;8.70;99.90;;;;;;4992984;28;20045;-66
2023/11/07 09:00:13;;;;;;;15.63;8.70;;;8.70;99.90;;;;;;5001887;28;20038;-67
2023/11/07 09:02:39;;;;;;;16.30;8.88;;;8.70;99.90;;;;;;4993149;28;20038;-65
2023/11/07 09:05:06;;;;;;;18.35;9.02;;;8.70;99.90;;;;;;4975383;28;20034;-65
2023/11/07 09:07:33;;;;;;;17.67;9.32;;;8.70;99.90;;;;;;4993822;28;20042;-64
2023/11/07 09:10:00;;;;;;;16.38;9.15;;;8.80;99.90;;;;;;4993431;28;20034;-67
2023/11/07 09:12:25;;;;;;;18.17;9.13;;;8.80;99.90;;;;;;4975470;28;20046;-65
2023/11/07 09:14:51;;;;;;;18.63;8.63;;;8.90;99.90;;;;;;4993009;28;20034;-67
2023/11/07 09:17:17;;;;;;;16.08;8.82;;;8.90;99.90;;;;;;4992922;28;20410;-68
2023/11/07 09:19:43;;;;;;;16.02;9.23;;;9.00;99.90;;;;;;4993088;28;20041;-68
2023/11/07 09:22:09;;;;;;;11.07;7.60;;;9.00;99.90;;;;;;4993253;28;20041;-64
2023/11/07 09:24:35;;;;;;;13.65;8.30;;;9.10;99.90;;;;;;4992811;28;20137;-64
2023/11/07 09:27:01;;;;;;;16.05;8.55;;;9.20;99.90;;;;;;4988930;28;20042;-64
2023/11/07 09:29:27;;;;;;;12.88;8.18;;;9.20;99.90;;;;;;4991190;28;20396;-65
2023/11/07 09:31:53;;;;;;;17.63;8.07;;;9.20;99.90;;;;;;4991060;28;20042;-64
2023/11/07 09:34:22;;;;;;;16.33;7.82;;;9.30;99.90;;;;;;4993163;28;20121;-65
2023/11/07 09:36:48;;;;;;;16.58;8.45;;;9.30;99.90;;;;;;4994137;28;20045;-68
2023/11/07 09:39:14;;;;;;;14.50;8.10;;;9.30;99.90;;;;;;4993300;28;20042;-67
2023/11/07 09:41:42;;;;;;;14.25;7.93;;;9.30;99.90;;;;;;4992469;28;20070;-65
2023/11/07 09:44:11;;;;;;;16.23;8.32;;;9.40;99.90;;;;;;4990760;28;20042;-65
2023/11/07 09:46:38;;;;;;;14.82;8.63;;;9.50;99.90;;;;;;4986920;28;20113;-66
2023/11/07 09:49:04;;;;;;;15.93;7.80;;;9.50;99.90;;;;;;4984875;28;20042;-66
2023/11/07 09:51:31;;;;;;;19.52;8.90;;;9.60;99.90;;;;;;4992708;28;20052;-65
2023/11/07 09:53:58;;;;;;;15.35;7.68;;;9.60;99.90;;;;;;4992342;28;20049;-66
2023/11/07 09:56:28;;;;;;;16.13;8.20;;;9.60;99.90;;;;;;4991820;28;20528;-65
2023/11/07 09:58:58;;;;;;;17.42;8.02;;;9.60;99.90;;;;;;4992079;28;20042;-66
2023/11/07 10:01:24;;;;;;;11.15;7.43;;;9.70;99.90;;;;;;4991731;28;20564;-66
2023/11/07 10:03:51;;;;;;;11.82;7.60;;;9.70;99.90;;;;;;4992513;28;20178;-66
2023/11/07 10:06:17;;;;;;;11.80;7.30;;;9.80;99.90;;;;;;4974025;28;20088;-66
2023/11/07 10:08:44;;;;;;;15.73;7.47;;;9.80;99.90;;;;;;4992884;28;20049;-67
2023/11/07 10:11:11;;;;;;;12.85;6.82;;;9.90;99.90;;;;;;4992243;28;20042;-66
2023/11/07 10:13:37;;;;;;;14.13;7.75;;;9.90;99.90;;;;;;4974316;28;20034;-67
2023/11/07 10:16:09;;;;;;;12.45;6.70;;;9.90;99.90;;;;;;4991610;28;20509;-67
2023/11/07 10:19:04;;;;;;;12.88;7.20;;;10.00;99.90;;;;;;4991835;28;20053;-65
2023/11/07 10:21:31;;;;;;;10.25;6.60;;;10.10;99.90;;;;;;4989846;28;20058;-66
2023/11/07 10:23:57;;;;;;;11.73;7.32;;;10.10;99.90;;;;;;4992268;28;20530;-65
2023/11/07 10:26:24;;;;;;;10.02;6.78;;;10.10;99.90;;;;;;4994906;28;20030;-65
2023/11/07 10:29:15;;;;;;;15.05;7.22;;;10.10;99.90;;;;;;4991748;28;20513;-66
2023/11/07 10:31:43;;;;;;;10.70;7.15;;;10.20;99.90;;;;;;4985903;28;20109;-66
2023/11/07 10:34:16;;;;;;;12.88;7.05;;;10.10;99.90;;;;;;4990910;28;20061;-67
2023/11/07 10:36:44;;;;;;;9.88;7.00;;;10.20;99.90;;;;;;4985317;28;20541;-66
2023/11/07 10:39:17;;;;;;;14.10;6.95;;;10.20;99.90;;;;;;4988246;28;20370;-66
2023/11/07 10:41:44;;;;;;;11.65;7.72;;;10.30;99.90;;;;;;4967302;28;20125;-66
2023/11/07 10:44:25;;;;;;;12.18;7.35;;;10.30;99.90;;;;;;4989078;28;20109;-66
2023/11/07 10:46:57;;;;;;;11.30;7.43;;;10.40;99.90;;;;;;4967836;28;20062;-66
2023/11/07 10:49:24;;;;;;;16.55;7.75;;;10.40;99.90;;;;;;4988955;28;20045;-66
2023/11/07 10:51:50;;;;;;;15.40;7.13;;;10.40;99.90;;;;;;4973868;28;20489;-67
2023/11/07 10:54:20;;;;;;;11.68;6.97;;;10.40;99.90;;;;;;4990030;28;20489;-66
2023/11/07 10:56:47;;;;;;;14.77;6.65;;;10.50;99.90;;;;;;4974263;28;20088;-66
2023/11/07 10:59:22;;;;;;;13.02;7.30;;;10.50;99.90;;;;;;4991046;28;20031;-66
2023/11/07 11:01:51;;;;;;;9.50;6.70;;;10.50;99.90;;;;;;4983990;28;20048;-66
2023/11/07 11:04:20;;;;;;;13.45;6.72;;;10.60;99.90;;;;;;4991075;28;20046;-66
2023/11/07 11:07:01;;;;;;;12.13;6.93;;;10.60;99.90;;;;;;4991053;28;20037;-66
2023/11/07 11:09:27;;;;;;;12.40;6.72;;;10.70;99.90;;;;;;4974001;28;20050;-66
2023/11/07 11:11:58;;;;;;;11.65;6.93;;;10.80;99.90;;;;;;4972399;28;20081;-66
2023/11/07 11:14:25;;;;;;;8.23;5.65;;;10.90;99.90;;;;;;4974001;28;20065;-67
2023/11/07 11:16:55;;;;;;;11.63;6.38;;;11.00;99.90;;;;;;4978560;28;20103;-66
2023/11/07 11:19:50;;;;;;;11.00;6.05;;;11.00;99.90;;;;;;4973494;28;20409;-67
2023/11/07 11:22:43;;;;;;;9.73;5.78;;;11.00;99.90;;;;;;4987182;28;20039;-66
2023/11/07 11:25:43;;;;;;;10.35;5.78;;;11.00;99.90;;;;;;4990434;28;20046;-67
2023/11/07 11:28:09;;;;;;;9.38;5.15;;;11.00;99.90;;;;;;4991332;28;20034;-66
2023/11/07 11:30:38;;;;;;;10.15;5.35;;;11.00;99.90;;;;;;4988962;28;20054;-66
2023/11/07 11:33:06;;;;;;;11.10;5.13;;;10.90;99.90;;;;;;4985940;28;20062;-66
2023/11/07 11:35:33;;;;;;;9.13;5.10;;;10.90;99.90;;;;;;4972702;28;20035;-66
2023/11/07 11:38:15;;;;;;;9.32;5.32;;;10.90;99.90;;;;;;4990882;28;20397;-66
2023/11/07 11:40:57;;;;;;;14.95;6.07;;;10.90;99.90;;;;;;4990375;28;20034;-66
2023/11/07 11:43:26;;;;;;;11.88;5.07;;;11.00;99.90;;;;;;4990357;28;20046;-66
2023/11/07 11:45:59;;;;;;;11.18;4.80;;;11.10;99.90;;;;;;4986781;28;20052;-66
2023/11/07 11:48:49;;;;;;;9.00;5.15;;;11.10;99.90;;;;;;4981207;28;20503;-66
2023/11/07 11:51:39;;;;;;;8.93;4.75;;;11.10;99.90;;;;;;4987828;28;20034;-67
2023/11/07 11:54:09;;;;;;;9.10;4.80;;;11.10;99.90;;;;;;4973298;28;20118;-66
2023/11/07 11:56:50;;;;;;;9.23;4.93;;;11.10;99.90;;;;;;4990006;28;20042;-65
2023/11/07 11:59:24;;;;;;;9.95;4.22;;;11.00;99.90;;;;;;4990087;28;20084;-66
2023/11/07 12:02:04;;;;;;;7.72;3.92;;;11.00;99.90;;;;;;4982080;28;20046;-66
2023/11/07 12:04:46;;;;;;;9.55;4.20;;;10.90;99.90;;;;;;4989572;28;20039;-65
2023/11/07 12:07:14;;;;;;;10.32;4.25;;;10.90;99.90;;;;;;4973258;28;20129;-66
2023/11/07 12:09:47;;;;;;;10.25;3.83;;;10.80;99.90;;;;;;4973334;28;20050;-66
2023/11/07 12:12:14;;;;;;;8.52;4.03;;;10.80;99.90;;;;;;4989936;28;20121;-66
2023/11/07 12:14:55;;;;;;;13.40;4.70;;;10.70;99.90;;;;;;4989765;28;20038;-67
2023/11/07 12:17:21;;;;;;;7.93;4.10;;;10.70;99.90;;;;;;4990832;28;20049;-66
2023/11/07 12:19:48;;;;;;;13.00;4.18;;;10.70;99.90;;;;;;4990049;28;20121;-66
2023/11/07 12:22:15;;;;;;;12.82;4.57;;;10.60;99.90;;;;;;4990362;28;20038;-66
2023/11/07 12:24:40;;;;;;;8.88;4.47;;;10.60;99.90;;;;;;4969280;28;20111;-66
2023/11/07 12:27:06;;;;;;;11.48;4.30;;;10.60;99.90;;;;;;4976825;28;20038;-68
2023/11/07 12:29:34;;;;;;;12.45;4.55;;;10.50;99.90;;;;;;4994273;28;20034;-66
2023/11/07 12:32:00;;;;;;;7.97;3.97;;;10.50;99.90;;;;;;4975939;28;20073;-66
2023/11/07 12:34:34;;;;;;;11.52;4.13;;;10.50;99.90;;;;;;4968527;28;20414;-66
2023/11/07 12:37:05;;;;;;;10.10;3.90;;;10.50;99.90;;;;;;4993965;28;20046;-66
2023/11/07 12:39:31;;;;;;;8.82;4.10;;;10.40;99.90;;;;;;4994229;28;20038;-67
2023/11/07 12:41:59;;;;;;;10.30;3.95;;;10.40;99.90;;;;;;4976174;28;20065;-66
2023/11/07 12:44:24;;;;;;;9.52;4.20;;;10.40;99.90;;;;;;4990666;28;20039;-66
2023/11/07 12:46:50;;;;;;;12.10;4.03;;;10.30;99.90;;;;;;4988782;28;20109;-65
2023/11/07 12:49:17;;;;;;;9.98;3.78;;;10.30;99.90;;;;;;4973802;28;20038;-65